createdAt,value
2022-11-13T00:02:42.044Z,95.50
2022-11-13T00:05:49.471Z,95.90
2022-11-13T00:08:56.689Z,95.60
2022-11-13T00:12:02.914Z,95.60
2022-11-13T00:15:09.994Z,95.60
2022-11-13T00:18:16.433Z,95.60
2022-11-13T00:21:25.870Z,95.60
2022-11-13T00:24:31.964Z,95.60
2022-11-13T00:27:38.754Z,95.70
2022-11-13T00:30:45.274Z,95.70
2022-11-13T00:34:13.938Z,95.70
2022-11-13T00:37:20.459Z,95.70
2022-11-13T00:40:26.800Z,95.90
2022-11-13T00:43:33.496Z,96.40
2022-11-13T00:46:41.105Z,96.10
2022-11-13T00:49:47.845Z,96.00
2022-11-13T00:52:56.158Z,96.00
2022-11-13T00:56:02.876Z,95.90
2022-11-13T00:59:09.797Z,96.10
2022-11-13T01:02:16.509Z,96.10
2022-11-13T01:05:23.218Z,96.50
2022-11-13T01:08:31.111Z,96.20
2022-11-13T01:11:38.361Z,96.20
2022-11-13T01:14:44.676Z,96.20
2022-11-13T01:17:51.838Z,96.10
2022-11-13T01:21:05.050Z,96.10
2022-11-13T01:24:12.262Z,96.10
2022-11-13T01:27:18.419Z,96.00
2022-11-13T01:30:25.291Z,96.00
2022-11-13T01:33:31.447Z,96.00
2022-11-13T01:36:37.461Z,96.10
2022-11-13T01:39:44.830Z,96.00
2022-11-13T01:42:51.258Z,96.00
2022-11-13T01:46:10.268Z,96.00
2022-11-13T01:49:28.565Z,96.00
2022-11-13T01:52:40.187Z,96.10
2022-11-13T01:55:48.312Z,96.10
2022-11-13T01:58:59.334Z,96.00
2022-11-13T02:02:05.978Z,96.00
2022-11-13T02:05:11.985Z,96.10
2022-11-13T02:08:18.157Z,96.20
2022-11-13T02:11:26.692Z,96.20
2022-11-13T02:14:34.416Z,96.20
2022-11-13T02:17:46.737Z,96.10
2022-11-13T02:21:03.215Z,96.20
2022-11-13T02:24:22.739Z,96.30
2022-11-13T02:27:34.779Z,96.30
2022-11-13T02:30:40.990Z,96.20
2022-11-13T02:33:47.328Z,96.10
2022-11-13T02:36:53.509Z,96.20
2022-11-13T02:40:00.900Z,96.10
2022-11-13T02:43:06.854Z,96.20
2022-11-13T02:46:12.477Z,96.30
2022-11-13T02:49:18.350Z,96.20
2022-11-13T02:52:24.533Z,96.10
2022-11-13T02:55:31.972Z,96.20
2022-11-13T02:58:37.865Z,96.10
2022-11-13T03:01:44.113Z,96.10
2022-11-13T03:05:11.302Z,96.10
2022-11-13T03:08:16.422Z,96.10
2022-11-13T03:11:24.054Z,96.30
2022-11-13T03:14:30.302Z,96.30
2022-11-13T03:17:36.774Z,96.30
2022-11-13T03:20:44.740Z,96.20
2022-11-13T03:23:50.783Z,96.10
2022-11-13T03:26:58.275Z,96.10
2022-11-13T03:30:04.875Z,96.20
2022-11-13T03:33:11.365Z,96.20
2022-11-13T03:36:17.324Z,96.10
2022-11-13T03:39:23.202Z,96.20
2022-11-13T03:42:30.635Z,96.30
2022-11-13T03:45:37.023Z,96.20
2022-11-13T03:48:43.243Z,96.20
2022-11-13T03:51:49.308Z,96.20
2022-11-13T03:54:55.338Z,96.20
2022-11-13T03:58:02.834Z,96.30
2022-11-13T04:01:09.412Z,96.30
2022-11-13T04:04:15.609Z,96.30
2022-11-13T04:07:21.465Z,96.40
2022-11-13T04:10:27.926Z,96.40
2022-11-13T04:13:35.329Z,96.40
2022-11-13T04:16:41.669Z,96.20
2022-11-13T04:19:47.877Z,96.20
2022-11-13T04:22:53.607Z,96.10
2022-11-13T04:25:59.917Z,96.10
2022-11-13T04:29:07.261Z,96.20
2022-11-13T04:32:12.941Z,96.20
2022-11-13T04:35:18.968Z,96.20
2022-11-13T04:38:25.135Z,96.20
2022-11-13T04:41:47.296Z,96.20
2022-11-13T04:44:56.919Z,96.10
2022-11-13T04:48:01.980Z,96.10
2022-11-13T04:51:07.072Z,96.00
2022-11-13T04:54:13.398Z,96.10
2022-11-13T04:57:19.422Z,96.00
2022-11-13T05:00:26.910Z,96.00
2022-11-13T05:03:32.985Z,96.00
2022-11-13T05:06:39.392Z,96.00
2022-11-13T05:09:45.790Z,96.10
2022-11-13T05:12:51.757Z,96.20
2022-11-13T05:16:04.503Z,96.00
2022-11-13T05:19:10.860Z,96.00
2022-11-13T05:22:17.016Z,96.10
2022-11-13T05:25:23.123Z,96.00
2022-11-13T05:28:29.491Z,95.90
2022-11-13T05:31:37.694Z,95.90
2022-11-13T05:34:43.815Z,95.80
2022-11-13T05:37:49.575Z,95.80
2022-11-13T05:40:55.695Z,96.20
2022-11-13T05:44:01.746Z,95.90
2022-11-13T05:47:09.516Z,96.00
2022-11-13T05:50:15.786Z,96.10
2022-11-13T05:53:21.899Z,95.90
2022-11-13T05:56:30.616Z,96.30
2022-11-13T05:59:36.517Z,95.90
2022-11-13T06:02:44.148Z,96.00
2022-11-13T06:05:50.055Z,95.90
2022-11-13T06:08:57.528Z,95.90
2022-11-13T06:12:04.021Z,95.80
2022-11-13T06:15:10.259Z,95.70
2022-11-13T06:18:26.308Z,95.80
2022-11-13T06:21:34.832Z,95.80
2022-11-13T06:24:40.599Z,95.90
2022-11-13T06:27:46.660Z,95.80
2022-11-13T06:30:52.610Z,95.90
2022-11-13T06:34:01.513Z,95.80
2022-11-13T06:37:07.469Z,95.90
2022-11-13T06:40:14.652Z,95.80
2022-11-13T06:43:20.732Z,95.80
2022-11-13T06:46:28.437Z,95.70
2022-11-13T06:49:35.916Z,95.60
2022-11-13T06:52:42.464Z,95.70
2022-11-13T06:55:51.196Z,95.70
2022-11-13T06:58:57.274Z,95.80
2022-11-13T07:02:03.775Z,95.70
2022-11-13T07:05:11.616Z,95.70
2022-11-13T07:08:18.797Z,95.70
2022-11-13T07:11:25.423Z,95.70
2022-11-13T07:14:31.524Z,95.60
2022-11-13T07:17:37.798Z,95.70
2022-11-13T07:20:44.903Z,95.80
2022-11-13T07:23:52.334Z,95.70
2022-11-13T07:26:58.564Z,95.80
2022-11-13T07:30:04.856Z,95.80
2022-11-13T07:33:10.631Z,95.70
2022-11-13T07:36:17.682Z,95.60
2022-11-13T07:39:23.479Z,95.70
2022-11-13T07:42:29.269Z,95.60
2022-11-13T07:45:35.488Z,95.60
2022-11-13T07:48:41.877Z,95.60
2022-11-13T07:51:49.517Z,95.60
2022-11-13T07:54:55.846Z,95.60
2022-11-13T07:58:02.858Z,95.70
2022-11-13T08:01:09.105Z,95.60
2022-11-13T08:04:15.598Z,95.60
2022-11-13T08:07:23.299Z,95.60
2022-11-13T08:10:29.709Z,95.60
2022-11-13T08:13:36.382Z,95.70
2022-11-13T08:16:42.280Z,95.70
2022-11-13T08:19:48.559Z,95.70
2022-11-13T08:22:58.566Z,95.70
2022-11-13T08:26:06.753Z,95.70
2022-11-13T08:29:12.943Z,95.90
2022-11-13T08:32:20.905Z,95.50
2022-11-13T08:35:29.621Z,95.50
2022-11-13T08:38:37.895Z,95.40
2022-11-13T08:41:44.217Z,95.20
2022-11-13T08:44:50.532Z,95.20
2022-11-13T08:48:00.658Z,95.30
2022-11-13T08:51:07.134Z,95.30
2022-11-13T08:54:15.016Z,95.10
2022-11-13T08:57:21.108Z,95.20
2022-11-13T09:00:27.494Z,95.30
2022-11-13T09:03:36.366Z,95.30
2022-11-13T09:06:42.415Z,95.10
2022-11-13T09:09:49.903Z,95.10
2022-11-13T09:12:59.364Z,95.10
2022-11-13T09:16:05.987Z,95.50
2022-11-13T09:19:12.168Z,95.10
2022-11-13T09:22:17.734Z,94.90
2022-11-13T09:25:25.098Z,94.90
2022-11-13T09:28:31.299Z,94.80
2022-11-13T09:31:38.498Z,94.90
2022-11-13T09:34:44.822Z,94.80
2022-11-13T09:37:55.956Z,94.80
2022-11-13T09:41:07.227Z,94.80
2022-11-13T09:44:17.628Z,95.10
2022-11-13T09:47:28.647Z,94.70
2022-11-13T09:50:35.897Z,94.60
2022-11-13T09:53:42.945Z,94.50
2022-11-13T09:56:58.233Z,94.50
2022-11-13T10:00:08.700Z,94.60
2022-11-13T10:03:54.306Z,94.50
2022-11-13T10:07:05.197Z,94.40
2022-11-13T10:10:29.742Z,94.20
2022-11-13T10:13:44.015Z,94.10
2022-11-13T10:16:56.583Z,93.90
2022-11-13T10:20:05.160Z,93.80
2022-11-13T10:23:16.368Z,93.70
2022-11-13T10:26:25.096Z,93.50
2022-11-13T10:29:32.412Z,93.50
2022-11-13T10:32:39.082Z,93.30
2022-11-13T10:35:54.445Z,93.20
2022-11-13T10:39:06.314Z,93.30
2022-11-13T10:42:24.692Z,93.30
2022-11-13T10:45:32.224Z,93.20
2022-11-13T10:48:38.786Z,93.20
2022-11-13T10:51:45.703Z,93.10
2022-11-13T10:54:52.711Z,93.10
2022-11-13T10:58:01.382Z,93.10
2022-11-13T11:01:23.838Z,92.90
2022-11-13T11:04:30.050Z,92.80
2022-11-13T11:07:41.866Z,92.60
2022-11-13T11:11:12.890Z,92.40
2022-11-13T11:14:24.443Z,92.10
2022-11-13T11:17:37.058Z,91.90
2022-11-13T11:20:47.523Z,91.70
2022-11-13T11:23:57.989Z,91.60
2022-11-13T11:27:11.242Z,91.40
2022-11-13T11:30:22.915Z,91.30
2022-11-13T11:33:34.024Z,91.00
2022-11-13T11:36:50.081Z,90.70
2022-11-13T11:40:01.649Z,90.50
2022-11-13T11:43:17.483Z,90.30
2022-11-13T11:46:26.039Z,90.00
2022-11-13T11:49:33.452Z,89.90
2022-11-13T11:52:54.156Z,89.40
2022-11-13T11:56:17.045Z,88.60
2022-11-13T11:59:37.150Z,88.40
2022-11-13T12:02:57.278Z,87.50
2022-11-13T12:06:17.618Z,87.10
2022-11-13T12:09:29.494Z,86.30
2022-11-13T12:12:47.981Z,86.10
2022-11-13T12:15:59.926Z,85.10
2022-11-13T12:19:10.401Z,84.80
2022-11-13T12:22:30.665Z,85.10
2022-11-13T12:25:43.712Z,85.00
2022-11-13T12:28:56.677Z,85.50
2022-11-13T12:32:10.459Z,85.40
2022-11-13T12:35:18.374Z,85.60
2022-11-13T12:38:35.120Z,86.10
2022-11-13T12:41:47.793Z,86.20
2022-11-13T12:45:03.047Z,85.80
2022-11-13T12:48:10.487Z,85.80
2022-11-13T12:51:19.015Z,85.90
2022-11-13T12:54:36.294Z,85.90
2022-11-13T12:57:49.255Z,85.90
2022-11-13T13:00:57.615Z,86.30
2022-11-13T13:04:39.693Z,86.10
2022-11-13T13:08:05.159Z,86.10
2022-11-13T13:11:19.306Z,86.30
2022-11-13T13:14:39.840Z,86.30
2022-11-13T13:17:46.481Z,86.20
2022-11-13T13:21:06.738Z,86.20
2022-11-13T13:24:34.340Z,86.20
2022-11-13T13:27:42.866Z,86.70
2022-11-13T13:30:59.892Z,85.80
2022-11-13T13:34:23.817Z,85.60
2022-11-13T13:37:43.393Z,85.50
2022-11-13T13:41:04.700Z,85.80
2022-11-13T13:44:46.465Z,85.70
2022-11-13T13:47:54.832Z,85.50
2022-11-13T13:51:01.909Z,85.50
2022-11-13T13:54:10.839Z,86.00
2022-11-13T13:57:18.443Z,84.90
2022-11-13T14:00:26.875Z,84.80
2022-11-13T14:03:33.199Z,84.80
2022-11-13T14:06:50.626Z,84.60
2022-11-13T14:10:17.074Z,84.70
2022-11-13T14:13:27.114Z,84.50
2022-11-13T14:16:35.221Z,84.40
2022-11-13T14:19:41.282Z,84.50
2022-11-13T14:22:56.524Z,84.20
2022-11-13T14:26:04.673Z,84.30
2022-11-13T14:29:22.785Z,83.70
2022-11-13T14:32:33.359Z,83.50
2022-11-13T14:35:41.903Z,82.80
2022-11-13T14:38:52.299Z,82.90
2022-11-13T14:42:01.225Z,81.00
2022-11-13T14:45:17.533Z,79.80
2022-11-13T14:48:27.662Z,78.50
2022-11-13T14:51:35.867Z,78.50
2022-11-13T14:55:13.197Z,77.00
2022-11-13T14:58:08.169Z,77.10
2022-11-13T15:01:17.571Z,77.20
2022-11-13T15:04:26.090Z,77.40
2022-11-13T15:07:34.739Z,77.60
2022-11-13T15:10:41.298Z,77.80
2022-11-13T15:13:48.947Z,78.40
2022-11-13T15:16:55.838Z,78.80
2022-11-13T15:20:09.315Z,79.20
2022-11-13T15:23:18.554Z,79.80
2022-11-13T15:26:25.638Z,80.30
2022-11-13T15:29:32.481Z,80.80
2022-11-13T15:32:39.413Z,81.20
2022-11-13T15:35:47.435Z,81.50
2022-11-13T15:38:53.981Z,81.80
2022-11-13T15:41:59.838Z,82.20
2022-11-13T15:45:07.677Z,82.40
2022-11-13T15:48:13.683Z,82.60
2022-11-13T15:51:24.513Z,82.90
2022-11-13T15:54:34.551Z,83.20
2022-11-13T15:57:40.817Z,83.30
2022-11-13T16:00:46.748Z,83.50
2022-11-13T16:03:52.679Z,83.70
2022-11-13T16:07:00.592Z,84.00
2022-11-13T16:10:07.005Z,84.10
2022-11-13T16:13:13.771Z,84.20
2022-11-13T16:16:24.057Z,84.40
2022-11-13T16:19:30.131Z,84.50
2022-11-13T16:22:37.272Z,84.70
2022-11-13T16:25:43.102Z,84.80
2022-11-13T16:29:12.748Z,85.20
2022-11-13T16:32:18.514Z,85.30
2022-11-13T16:35:24.726Z,85.70
2022-11-13T16:38:32.093Z,86.00
2022-11-13T16:41:38.893Z,87.10
2022-11-13T16:44:45.146Z,87.00
2022-11-13T16:47:51.877Z,87.00
2022-11-13T16:50:57.667Z,86.90
2022-11-13T16:54:04.771Z,86.90
2022-11-13T16:57:11.971Z,87.10
2022-11-13T17:00:20.529Z,88.50
2022-11-13T17:03:26.707Z,88.10
2022-11-13T17:06:34.399Z,88.10
2022-11-13T17:09:42.772Z,88.00
2022-11-13T17:12:52.339Z,88.40
2022-11-13T17:16:02.253Z,88.70
2022-11-13T17:19:08.813Z,88.60
2022-11-13T17:22:17.058Z,88.70
2022-11-13T17:25:26.872Z,88.90
2022-11-13T17:28:33.592Z,89.30
2022-11-13T17:31:39.342Z,89.50
2022-11-13T17:34:45.607Z,89.60
2022-11-13T17:37:51.514Z,89.50
2022-11-13T17:41:06.110Z,89.50
2022-11-13T17:44:12.186Z,89.50
2022-11-13T17:47:18.209Z,89.70
2022-11-13T17:50:24.318Z,90.00
2022-11-13T17:53:31.714Z,90.10
2022-11-13T17:56:40.667Z,90.10
2022-11-13T17:59:46.728Z,90.20
2022-11-13T18:02:52.811Z,90.30
2022-11-13T18:05:59.121Z,90.30
2022-11-13T18:09:05.353Z,90.30
2022-11-13T18:12:12.468Z,90.40
2022-11-13T18:15:18.608Z,90.50
2022-11-13T18:18:24.513Z,90.70
2022-11-13T18:21:33.368Z,90.80
2022-11-13T18:24:39.562Z,90.90
2022-11-13T18:27:47.391Z,90.90
2022-11-13T18:30:56.624Z,91.00
2022-11-13T18:34:04.437Z,91.00
2022-11-13T18:37:10.281Z,91.20
2022-11-13T18:40:15.692Z,91.20
2022-11-13T18:43:23.125Z,91.40
2022-11-13T18:46:28.826Z,91.90
2022-11-13T18:49:34.955Z,91.90
2022-11-13T18:52:40.645Z,91.60
2022-11-13T18:55:46.876Z,91.60
2022-11-13T18:58:55.594Z,91.60
2022-11-13T19:02:01.829Z,91.60
2022-11-13T19:05:08.104Z,91.60
2022-11-13T19:08:14.280Z,91.70
2022-11-13T19:11:20.666Z,91.70
2022-11-13T19:14:28.123Z,91.80
2022-11-13T19:17:34.203Z,91.80
2022-11-13T19:20:40.794Z,91.80
2022-11-13T19:23:46.465Z,92.00
2022-11-13T19:26:52.439Z,92.00
2022-11-13T19:29:59.795Z,92.00
2022-11-13T19:33:06.299Z,92.00
2022-11-13T19:36:14.692Z,92.10
2022-11-13T19:39:20.927Z,92.20
2022-11-13T19:42:27.138Z,92.30
2022-11-13T19:45:36.729Z,92.30
2022-11-13T19:48:44.881Z,92.30
2022-11-13T19:51:50.802Z,92.40
2022-11-13T19:54:57.194Z,92.40
2022-11-13T19:58:03.426Z,92.40
2022-11-13T20:01:13.077Z,92.50
2022-11-13T20:04:19.583Z,92.60
2022-11-13T20:07:26.062Z,92.60
2022-11-13T20:10:33.898Z,92.70
2022-11-13T20:13:42.017Z,92.80
2022-11-13T20:16:49.224Z,92.80
2022-11-13T20:19:55.266Z,92.80
2022-11-13T20:23:01.214Z,92.90
2022-11-13T20:26:09.853Z,93.00
2022-11-13T20:29:15.884Z,93.10
2022-11-13T20:32:23.300Z,93.20
2022-11-13T20:35:29.309Z,93.30
2022-11-13T20:38:35.079Z,93.40
2022-11-13T20:41:41.067Z,93.40
2022-11-13T20:44:47.569Z,93.50
2022-11-13T20:47:55.092Z,93.60
2022-11-13T20:51:08.489Z,93.70
2022-11-13T20:54:14.401Z,93.80
2022-11-13T20:57:21.618Z,93.80
2022-11-13T21:00:27.391Z,93.90
2022-11-13T21:03:39.875Z,94.00
2022-11-13T21:06:47.526Z,94.10
2022-11-13T21:09:53.357Z,94.10
2022-11-13T21:12:59.513Z,94.20
2022-11-13T21:16:07.351Z,94.20
2022-11-13T21:19:15.067Z,94.30
2022-11-13T21:22:21.128Z,94.40
2022-11-13T21:25:27.372Z,94.50
2022-11-13T21:28:34.177Z,94.50
2022-11-13T21:31:40.392Z,94.50
2022-11-13T21:34:47.892Z,94.60
2022-11-13T21:37:53.842Z,94.60
2022-11-13T21:41:14.709Z,94.60
2022-11-13T21:44:20.489Z,94.60
2022-11-13T21:47:26.406Z,94.70
2022-11-13T21:50:33.925Z,94.70
2022-11-13T21:53:40.124Z,94.70
2022-11-13T21:56:46.257Z,94.80
2022-11-13T21:59:53.404Z,94.80
2022-11-13T22:02:59.360Z,94.80
2022-11-13T22:06:22.757Z,94.90
2022-11-13T22:09:28.847Z,94.90
2022-11-13T22:12:34.976Z,94.90
2022-11-13T22:15:40.853Z,95.00
2022-11-13T22:18:46.802Z,95.00
2022-11-13T22:21:55.310Z,95.00
2022-11-13T22:25:01.108Z,95.00
2022-11-13T22:28:06.829Z,95.00
2022-11-13T22:31:16.109Z,95.00
2022-11-13T22:34:22.013Z,95.10
2022-11-13T22:37:29.289Z,95.10
2022-11-13T22:40:35.318Z,95.10
2022-11-13T22:43:43.771Z,95.00
2022-11-13T22:46:49.660Z,95.10
2022-11-13T22:49:55.742Z,95.10
2022-11-13T22:53:03.453Z,95.10
2022-11-13T22:56:12.457Z,95.10
2022-11-13T22:59:18.530Z,95.10
2022-11-13T23:02:24.822Z,95.10
2022-11-13T23:05:45.156Z,95.10
2022-11-13T23:08:53.291Z,95.20
2022-11-13T23:11:59.102Z,95.10
2022-11-13T23:15:05.122Z,95.20
2022-11-13T23:18:10.597Z,95.20
2022-11-13T23:21:17.776Z,95.30
2022-11-13T23:24:25.379Z,95.40
2022-11-13T23:27:33.714Z,95.50
2022-11-13T23:30:39.717Z,95.50
2022-11-13T23:33:45.917Z,95.50
2022-11-13T23:36:51.667Z,95.50
2022-11-13T23:39:58.984Z,95.50
2022-11-13T23:43:05.485Z,95.40
2022-11-13T23:46:11.346Z,95.40
2022-11-13T23:49:17.260Z,95.50
2022-11-13T23:52:23.328Z,95.50
2022-11-13T23:55:30.762Z,95.50
2022-11-13T23:58:36.847Z,95.50
